Time;durP1;ratioP1;P1;durP2;ratioP2;P2;SDS_P1;SDS_P2;PMS_P1;PMS_P2;Temp;Humidity;BMP_temperature;BMP_pressure;BME280_temperature;BME280_humidity;BME280_pressure;Samples;Min_cycle;Max_cycle;Signal;HPM_P1;HPM_P2
2023/12/20 00:00:24;;;;;;;16.45;2.45;;;;;;;;;;5097094;28;20054;-62
2023/12/20 00:02:50;;;;;;;15.15;2.78;;;;;;;;;;5089005;28;20115;-62
2023/12/20 00:05:16;;;;;;;17.92;2.42;;;;;;;;;;5100899;28;20068;-62
2023/12/20 00:07:42;;;;;;;16.08;2.80;;;;;;;;;;5093504;28;20063;-62
2023/12/20 00:10:09;;;;;;;17.20;3.00;;;;;;;;;;5098953;28;20039;-61
2023/12/20 00:12:35;;;;;;;19.00;3.40;;;;;;;;;;5098089;28;20115;-62
2023/12/20 00:15:01;;;;;;;26.15;3.83;;;;;;;;;;5087767;28;20108;-61
2023/12/20 00:17:27;;;;;;;27.02;4.93;;;;;;;;;;5086325;28;20039;-62
2023/12/20 00:19:53;;;;;;;19.67;2.63;;;;;;;;;;5088136;28;20056;-62
2023/12/20 00:22:20;;;;;;;17.70;3.42;;;;;;;;;;5096732;28;20092;-62
2023/12/20 00:24:46;;;;;;;24.17;3.25;;;;;;;;;;5098291;27;20066;-62
2023/12/20 00:27:12;;;;;;;18.88;3.85;;;;;;;;;;5098370;28;20048;-62
2023/12/20 00:29:38;;;;;;;18.48;3.92;;;;;;;;;;5080020;28;20155;-62
2023/12/20 00:32:04;;;;;;;27.23;6.43;;;;;;;;;;5081555;28;20054;-62
2023/12/20 00:34:30;;;;;;;20.45;4.20;;;;;;;;;;5085996;28;20055;-62
2023/12/20 00:36:57;;;;;;;25.15;5.30;;;;;;;;;;5099566;28;20066;-62
2023/12/20 00:39:24;;;;;;;22.38;3.38;;;;;;;;;;5098920;28;20044;-62
2023/12/20 00:41:50;;;;;;;29.05;4.43;;;;;;;;;;5096581;28;20118;-61
2023/12/20 00:44:16;;;;;;;16.90;2.92;;;;;;;;;;5080530;28;20063;-62
2023/12/20 00:46:42;;;;;;;29.13;3.83;;;;;;;;;;5098987;28;20039;-62
2023/12/20 00:49:08;;;;;;;27.30;4.13;;;;;;;;;;5097217;28;20139;-61
2023/12/20 00:51:35;;;;;;;17.38;3.53;;;;;;;;;;5079003;28;20036;-61
2023/12/20 00:54:01;;;;;;;20.90;3.88;;;;;;;;;;5097341;28;20046;-62
2023/12/20 00:56:27;;;;;;;28.48;4.15;;;;;;;;;;5096635;28;20032;-62
2023/12/20 00:58:53;;;;;;;24.17;4.40;;;;;;;;;;5099705;28;20131;-62
2023/12/20 01:01:19;;;;;;;21.40;5.05;;;;;;;;;;5077930;28;20367;-62
2023/12/20 01:03:45;;;;;;;27.42;3.90;;;;;;;;;;5097769;28;20035;-62
2023/12/20 01:06:12;;;;;;;23.70;3.45;;;;;;;;;;5076934;28;20450;-61
2023/12/20 01:08:38;;;;;;;24.38;3.95;;;;;;;;;;5096960;28;20129;-62
2023/12/20 01:11:05;;;;;;;28.83;4.28;;;;;;;;;;5078252;28;20047;-61
2023/12/20 01:13:32;;;;;;;21.95;4.72;;;;;;;;;;5079149;28;20059;-61
2023/12/20 01:15:58;;;;;;;23.15;3.20;;;;;;;;;;5082898;28;20089;-62
2023/12/20 01:18:24;;;;;;;17.83;2.50;;;;;;;;;;5099524;28;20073;-62
2023/12/20 01:20:50;;;;;;;19.30;3.22;;;;;;;;;;5078661;28;20088;-62
2023/12/20 01:23:16;;;;;;;18.60;4.78;;;;;;;;;;5097325;28;20160;-62
2023/12/20 01:25:43;;;;;;;27.05;4.30;;;;;;;;;;5078757;28;20087;-62
2023/12/20 01:28:09;;;;;;;32.05;4.07;;;;;;;;;;5082691;28;20055;-62
2023/12/20 01:30:35;;;;;;;26.50;3.45;;;;;;;;;;5085742;28;20062;-62
2023/12/20 01:33:01;;;;;;;34.17;4.35;;;;;;;;;;5095933;28;20044;-62
2023/12/20 01:35:28;;;;;;;27.95;4.15;;;;;;;;;;5095127;28;20083;-62
2023/12/20 01:37:57;;;;;;;25.63;3.47;;;;;;;;;;5097050;28;20408;-62
2023/12/20 01:40:23;;;;;;;31.27;3.60;;;;;;;;;;5089260;28;20497;-62
2023/12/20 01:43:09;;;;;;;32.22;4.60;;;;;;;;;;5086702;28;20097;-62
2023/12/20 01:45:35;;;;;;;29.08;4.40;;;;;;;;;;5092060;28;20044;-62
2023/12/20 01:48:03;;;;;;;29.17;6.03;;;;;;;;;;5095238;28;20108;-62
2023/12/20 01:50:29;;;;;;;32.60;5.53;;;;;;;;;;5098352;28;20066;-62
2023/12/20 01:52:57;;;;;;;38.92;5.75;;;;;;;;;;5086130;28;20111;-62
2023/12/20 01:55:24;;;;;;;37.22;6.82;;;;;;;;;;5096787;28;20047;-62
2023/12/20 01:57:51;;;;;;;29.85;5.43;;;;;;;;;;5093466;28;20101;-62
2023/12/20 02:00:17;;;;;;;33.80;6.10;;;;;;;;;;5095901;28;20032;-62
2023/12/20 02:02:45;;;;;;;42.85;5.07;;;;;;;;;;5087789;28;20047;-62
2023/12/20 02:05:11;;;;;;;33.90;4.68;;;;;;;;;;5091516;28;20386;-62
2023/12/20 02:07:37;;;;;;;39.00;5.80;;;;;;;;;;5095916;28;20130;-62
2023/12/20 02:10:04;;;;;;;28.80;4.05;;;;;;;;;;5085691;28;20043;-62
2023/12/20 02:12:30;;;;;;;40.25;6.25;;;;;;;;;;5073137;28;20114;-62
2023/12/20 02:14:57;;;;;;;26.20;4.45;;;;;;;;;;5101832;28;20036;-62
2023/12/20 02:17:23;;;;;;;32.47;5.63;;;;;;;;;;5090745;28;20043;-62
2023/12/20 02:19:50;;;;;;;34.80;6.32;;;;;;;;;;5093376;28;20047;-62
2023/12/20 02:22:16;;;;;;;29.45;6.15;;;;;;;;;;5100030;28;20124;-61
2023/12/20 02:24:42;;;;;;;28.40;4.63;;;;;;;;;;5099688;28;20526;-62
2023/12/20 02:27:09;;;;;;;34.28;5.40;;;;;;;;;;5106996;28;20043;-62
2023/12/20 02:29:35;;;;;;;30.98;4.60;;;;;;;;;;5118739;28;20046;-62
2023/12/20 02:32:02;;;;;;;31.13;5.07;;;;;;;;;;5115503;27;21779;-62
2023/12/20 02:34:29;;;;;;;26.15;5.47;;;;;;;;;;5116257;28;20042;-62
2023/12/20 02:36:57;;;;;;;34.50;6.00;;;;;;;;;;5100756;28;20084;-62
2023/12/20 02:39:23;;;;;;;39.83;5.97;;;;;;;;;;5098873;28;20260;-62
2023/12/20 02:41:49;;;;;;;23.25;4.63;;;;;;;;;;5099118;28;20208;-62
2023/12/20 02:44:15;;;;;;;33.13;5.40;;;;;;;;;;5097549;28;20600;-62
2023/12/20 02:46:42;;;;;;;42.25;5.95;;;;;;;;;;5097395;28;20046;-62
2023/12/20 02:49:08;;;;;;;29.55;4.60;;;;;;;;;;5095887;28;20118;-62
2023/12/20 02:51:34;;;;;;;33.40;4.90;;;;;;;;;;5118524;27;20066;-62
2023/12/20 02:54:00;;;;;;;31.83;5.07;;;;;;;;;;5099377;28;20135;-62
2023/12/20 02:56:26;;;;;;;32.95;5.10;;;;;;;;;;5118494;28;20497;-62
2023/12/20 02:58:52;;;;;;;29.65;5.65;;;;;;;;;;5120212;28;20047;-62
2023/12/20 03:01:19;;;;;;;33.75;5.78;;;;;;;;;;5099471;28;20091;-62
2023/12/20 03:03:45;;;;;;;33.72;6.25;;;;;;;;;;5078833;28;21410;-62
2023/12/20 03:06:12;;;;;;;32.97;4.97;;;;;;;;;;5096363;27;20089;-62
2023/12/20 03:08:38;;;;;;;34.25;6.97;;;;;;;;;;5079326;28;20063;-62
2023/12/20 03:11:04;;;;;;;35.70;5.72;;;;;;;;;;5118065;27;20043;-62
2023/12/20 03:13:30;;;;;;;38.42;5.95;;;;;;;;;;5120137;28;20047;-62
2023/12/20 03:15:57;;;;;;;28.13;4.90;;;;;;;;;;5095987;28;20335;-62
2023/12/20 03:18:23;;;;;;;31.50;5.82;;;;;;;;;;5120181;28;20036;-62
2023/12/20 03:20:50;;;;;;;27.48;5.13;;;;;;;;;;5095041;28;20102;-63
2023/12/20 03:23:16;;;;;;;37.63;4.47;;;;;;;;;;5115432;28;20594;-62
2023/12/20 03:25:43;;;;;;;35.60;5.53;;;;;;;;;;5096045;27;20059;-62
2023/12/20 03:28:09;;;;;;;26.98;4.93;;;;;;;;;;5088194;28;20052;-62
2023/12/20 03:30:35;;;;;;;31.20;6.28;;;;;;;;;;5097902;28;20110;-62
2023/12/20 03:33:01;;;;;;;29.23;4.82;;;;;;;;;;5093275;28;20181;-62
2023/12/20 03:35:27;;;;;;;35.00;5.45;;;;;;;;;;5099361;28;20043;-62
2023/12/20 03:37:54;;;;;;;36.97;5.95;;;;;;;;;;5088963;27;20055;-62
2023/12/20 03:40:20;;;;;;;34.85;5.45;;;;;;;;;;5109305;27;20078;-62
2023/12/20 03:42:46;;;;;;;24.92;4.60;;;;;;;;;;5095610;28;20047;-62
2023/12/20 03:45:12;;;;;;;29.05;6.05;;;;;;;;;;5088017;28;20711;-62
2023/12/20 03:47:38;;;;;;;39.38;6.10;;;;;;;;;;5092852;28;20101;-62
2023/12/20 03:50:05;;;;;;;34.85;8.05;;;;;;;;;;5100328;28;20150;-62
2023/12/20 03:52:31;;;;;;;25.25;4.22;;;;;;;;;;5100595;28;20047;-62
2023/12/20 03:54:57;;;;;;;34.15;4.70;;;;;;;;;;5089616;28;20230;-62
2023/12/20 03:57:23;;;;;;;32.63;5.45;;;;;;;;;;5087833;28;21912;-62
2023/12/20 03:59:49;;;;;;;26.05;3.95;;;;;;;;;;5087517;28;20139;-62
2023/12/20 04:02:17;;;;;;;37.38;4.80;;;;;;;;;;5097279;28;20057;-62
2023/12/20 04:04:44;;;;;;;27.73;4.10;;;;;;;;;;5086522;28;20044;-62
2023/12/20 04:07:10;;;;;;;31.60;4.63;;;;;;;;;;5087747;28;20153;-62
2023/12/20 04:09:36;;;;;;;22.95;4.05;;;;;;;;;;5097910;28;20075;-62
2023/12/20 04:12:02;;;;;;;35.78;4.55;;;;;;;;;;5086579;28;20094;-62
2023/12/20 04:14:28;;;;;;;29.88;5.50;;;;;;;;;;5097361;28;20054;-62
2023/12/20 04:16:55;;;;;;;33.83;5.00;;;;;;;;;;5084642;28;20048;-62
2023/12/20 04:19:21;;;;;;;28.35;4.35;;;;;;;;;;5096292;28;20211;-62
2023/12/20 04:21:47;;;;;;;40.55;5.93;;;;;;;;;;5099809;28;20058;-62
2023/12/20 04:24:13;;;;;;;30.10;6.05;;;;;;;;;;5087901;28;20112;-62
2023/12/20 04:26:39;;;;;;;26.15;4.43;;;;;;;;;;5087758;27;20075;-62
2023/12/20 04:29:05;;;;;;;31.15;4.80;;;;;;;;;;5118309;27;20755;-62
2023/12/20 04:31:31;;;;;;;36.08;5.80;;;;;;;;;;5096206;27;20039;-62
2023/12/20 04:33:58;;;;;;;25.42;5.00;;;;;;;;;;5118583;27;20100;-62
2023/12/20 04:36:26;;;;;;;45.97;6.53;;;;;;;;;;5119953;27;20519;-62
2023/12/20 04:38:53;;;;;;;31.70;5.40;;;;;;;;;;5101501;27;20051;-62
2023/12/20 04:41:19;;;;;;;34.70;4.85;;;;;;;;;;5099508;27;20069;-62
2023/12/20 04:43:45;;;;;;;34.67;6.40;;;;;;;;;;5098001;27;20043;-62
2023/12/20 04:46:12;;;;;;;30.45;5.43;;;;;;;;;;5097474;27;20050;-62
2023/12/20 04:48:38;;;;;;;30.08;5.07;;;;;;;;;;5096341;27;20100;-62
2023/12/20 04:51:04;;;;;;;30.88;5.70;;;;;;;;;;5097800;27;20047;-62
2023/12/20 04:53:30;;;;;;;31.33;6.32;;;;;;;;;;5101347;27;20483;-62
2023/12/20 04:55:57;;;;;;;27.83;5.55;;;;;;;;;;5099682;27;20046;-62
2023/12/20 04:58:23;;;;;;;23.38;4.80;;;;;;;;;;5121175;27;20122;-62
2023/12/20 05:00:50;;;;;;;36.85;6.95;;;;;;;;;;5098897;27;20046;-62
2023/12/20 05:03:16;;;;;;;31.83;4.45;;;;;;;;;;5081885;27;20116;-62
2023/12/20 05:05:42;;;;;;;37.72;5.70;;;;;;;;;;5118299;27;20394;-62
2023/12/20 05:08:08;;;;;;;41.58;8.90;;;;;;;;;;5082475;27;20043;-62
2023/12/20 05:10:36;;;;;;;33.85;5.32;;;;;;;;;;5100779;27;20039;-62
2023/12/20 05:13:02;;;;;;;39.40;6.13;;;;;;;;;;5097432;27;20061;-62
2023/12/20 05:15:28;;;;;;;32.70;5.07;;;;;;;;;;5116739;27;20043;-62
2023/12/20 05:17:54;;;;;;;43.95;7.03;;;;;;;;;;5096743;27;20059;-62
2023/12/20 05:20:21;;;;;;;33.03;5.28;;;;;;;;;;5117508;27;20047;-62
2023/12/20 05:22:48;;;;;;;32.35;4.68;;;;;;;;;;5099213;27;20087;-62
2023/12/20 05:25:14;;;;;;;44.25;7.18;;;;;;;;;;5097344;27;20145;-62
2023/12/20 05:27:40;;;;;;;32.60;6.30;;;;;;;;;;5096769;27;20051;-62
2023/12/20 05:30:07;;;;;;;35.85;5.22;;;;;;;;;;5091867;27;20083;-62
2023/12/20 05:32:33;;;;;;;32.42;6.30;;;;;;;;;;5118443;27;20631;-62
2023/12/20 05:34:59;;;;;;;39.38;5.63;;;;;;;;;;5119888;27;20062;-62
2023/12/20 05:37:25;;;;;;;35.97;4.88;;;;;;;;;;5113811;27;20316;-62
2023/12/20 05:39:51;;;;;;;33.35;6.07;;;;;;;;;;5116618;27;20051;-62
2023/12/20 05:42:18;;;;;;;30.05;4.90;;;;;;;;;;5113416;27;20048;-62
2023/12/20 05:44:44;;;;;;;34.33;5.50;;;;;;;;;;5096133;27;20054;-62
2023/12/20 05:47:10;;;;;;;30.83;5.07;;;;;;;;;;5102053;27;20497;-62
2023/12/20 05:49:36;;;;;;;33.08;6.20;;;;;;;;;;5116466;27;20055;-62
2023/12/20 05:52:03;;;;;;;30.63;6.00;;;;;;;;;;5099222;27;20458;-62
2023/12/20 05:54:29;;;;;;;27.42;4.88;;;;;;;;;;5095303;27;20267;-62
2023/12/20 05:56:55;;;;;;;28.15;5.35;;;;;;;;;;5097454;27;20059;-62
2023/12/20 05:59:21;;;;;;;29.40;4.97;;;;;;;;;;5101069;27;20428;-62
2023/12/20 06:01:48;;;;;;;29.80;5.60;;;;;;;;;;5096569;27;20063;-62
2023/12/20 06:04:14;;;;;;;30.30;5.53;;;;;;;;;;5092314;27;20075;-62
2023/12/20 06:06:42;;;;;;;34.95;5.50;;;;;;;;;;5086323;27;20039;-62
2023/12/20 06:09:08;;;;;;;37.20;5.63;;;;;;;;;;5104525;27;20054;-62
2023/12/20 06:11:34;;;;;;;29.00;5.90;;;;;;;;;;5123254;27;20039;-62
2023/12/20 06:14:01;;;;;;;33.30;6.03;;;;;;;;;;5104194;27;20491;-62
2023/12/20 06:16:27;;;;;;;30.33;6.07;;;;;;;;;;5107811;27;20070;-63
2023/12/20 06:18:53;;;;;;;27.50;4.50;;;;;;;;;;5122488;27;20053;-62
2023/12/20 06:21:19;;;;;;;28.85;5.65;;;;;;;;;;5103070;27;20172;-62
2023/12/20 06:23:46;;;;;;;26.50;4.70;;;;;;;;;;5121395;27;20054;-62
2023/12/20 06:26:12;;;;;;;28.05;5.30;;;;;;;;;;5105709;28;20450;-63
2023/12/20 06:28:38;;;;;;;29.70;5.53;;;;;;;;;;5104112;28;20052;-62
2023/12/20 06:31:04;;;;;;;35.78;5.40;;;;;;;;;;5103924;28;20065;-62
2023/12/20 06:33:31;;;;;;;46.10;6.90;;;;;;;;;;5098459;28;20043;-62
2023/12/20 06:35:57;;;;;;;28.02;5.20;;;;;;;;;;5107719;27;20050;-62
2023/12/20 06:38:23;;;;;;;35.88;5.70;;;;;;;;;;5098325;28;20069;-63
2023/12/20 06:40:50;;;;;;;34.38;5.05;;;;;;;;;;5101355;28;20166;-62
2023/12/20 06:43:16;;;;;;;36.33;5.35;;;;;;;;;;5121606;28;20057;-62
2023/12/20 06:45:42;;;;;;;39.05;7.28;;;;;;;;;;5127073;28;20103;-62
2023/12/20 06:48:09;;;;;;;28.92;6.40;;;;;;;;;;5099756;28;20571;-62
2023/12/20 06:50:39;;;;;;;31.65;5.57;;;;;;;;;;5123743;28;20051;-63
2023/12/20 06:53:06;;;;;;;36.28;5.28;;;;;;;;;;5096204;28;20048;-63
2023/12/20 06:55:34;;;;;;;30.75;5.93;;;;;;;;;;5119999;28;20142;-63
2023/12/20 06:58:00;;;;;;;36.05;5.97;;;;;;;;;;5081090;28;20447;-62
2023/12/20 07:00:27;;;;;;;38.83;6.30;;;;;;;;;;5123977;28;20542;-62
2023/12/20 07:02:53;;;;;;;31.90;7.10;;;;;;;;;;5124665;28;20117;-62
2023/12/20 07:05:19;;;;;;;32.47;5.63;;;;;;;;;;5123442;28;20072;-62
2023/12/20 07:07:46;;;;;;;35.63;6.35;;;;;;;;;;5100018;28;20040;-62
2023/12/20 07:10:13;;;;;;;27.45;6.43;;;;;;;;;;5106182;27;20066;-62
2023/12/20 07:12:39;;;;;;;36.03;5.88;;;;;;;;;;5109174;27;20159;-62
2023/12/20 07:15:07;;;;;;;30.67;4.90;;;;;;;;;;5104907;27;20047;-62
2023/12/20 07:17:33;;;;;;;30.48;5.07;;;;;;;;;;5086632;27;20039;-62
2023/12/20 07:20:03;;;;;;;32.85;5.35;;;;;;;;;;5104895;27;20060;-62
2023/12/20 07:22:31;;;;;;;27.88;4.18;;;;;;;;;;5124069;27;20047;-62
2023/12/20 07:24:59;;;;;;;30.33;6.43;;;;;;;;;;5102461;27;20043;-62
2023/12/20 07:27:25;;;;;;;32.72;4.88;;;;;;;;;;5117313;27;20521;-62
2023/12/20 07:29:51;;;;;;;31.25;5.32;;;;;;;;;;5117086;27;20052;-62
2023/12/20 07:32:18;;;;;;;31.48;5.07;;;;;;;;;;5103584;27;20051;-62
2023/12/20 07:34:44;;;;;;;33.88;6.18;;;;;;;;;;5106504;27;20047;-62
2023/12/20 07:37:11;;;;;;;26.15;4.50;;;;;;;;;;5126894;27;20031;-62
2023/12/20 07:39:38;;;;;;;28.60;4.97;;;;;;;;;;5109316;27;20039;-62
2023/12/20 07:42:04;;;;;;;30.85;6.97;;;;;;;;;;5124870;27;20100;-62
2023/12/20 07:44:31;;;;;;;27.00;5.60;;;;;;;;;;5104735;27;20058;-62
2023/12/20 07:46:57;;;;;;;37.40;6.25;;;;;;;;;;5125630;27;20031;-62
2023/12/20 07:49:24;;;;;;;35.33;6.50;;;;;;;;;;5104922;27;21381;-62
2023/12/20 07:51:50;;;;;;;36.88;7.45;;;;;;;;;;5102073;27;20051;-62
2023/12/20 07:54:16;;;;;;;33.13;6.90;;;;;;;;;;5128864;27;20506;-62
2023/12/20 07:56:43;;;;;;;31.27;5.00;;;;;;;;;;5104389;27;20043;-62
2023/12/20 07:59:09;;;;;;;28.60;6.18;;;;;;;;;;5106438;27;20036;-62
2023/12/20 08:01:36;;;;;;;33.88;5.57;;;;;;;;;;5108714;27;20482;-62
2023/12/20 08:04:02;;;;;;;30.08;4.95;;;;;;;;;;5127030;27;20081;-62
2023/12/20 08:06:28;;;;;;;30.25;5.35;;;;;;;;;;5123340;27;20062;-61
2023/12/20 08:08:54;;;;;;;26.27;4.90;;;;;;;;;;5122763;27;20436;-62
2023/12/20 08:11:20;;;;;;;22.30;4.25;;;;;;;;;;5128396;27;20045;-62
2023/12/20 08:13:46;;;;;;;20.23;3.35;;;;;;;;;;5115754;27;20127;-62
2023/12/20 08:16:13;;;;;;;23.98;3.60;;;;;;;;;;5105066;27;20055;-62
2023/12/20 08:18:39;;;;;;;27.60;5.18;;;;;;;;;;5115979;27;20043;-62
2023/12/20 08:21:08;;;;;;;21.45;4.05;;;;;;;;;;5106227;27;20394;-62
2023/12/20 08:23:34;;;;;;;29.30;7.53;;;;;;;;;;5105451;27;20071;-62
2023/12/20 08:26:07;;;;;;;26.75;5.43;;;;;;;;;;5115566;27;20035;-62
2023/12/20 08:28:33;;;;;;;19.23;4.25;;;;;;;;;;5100508;27;20405;-62
2023/12/20 08:30:59;;;;;;;20.85;4.95;;;;;;;;;;5107037;27;20040;-62
2023/12/20 08:33:26;;;;;;;38.08;6.45;;;;;;;;;;5122042;27;20058;-62
2023/12/20 08:35:52;;;;;;;26.15;5.93;;;;;;;;;;5107602;27;20127;-62
2023/12/20 08:38:18;;;;;;;39.20;6.15;;;;;;;;;;5106162;27;20570;-62
2023/12/20 08:40:44;;;;;;;32.08;6.07;;;;;;;;;;5119517;27;20136;-62
2023/12/20 08:43:11;;;;;;;34.95;5.03;;;;;;;;;;5101159;27;20403;-62
2023/12/20 08:45:37;;;;;;;31.30;5.75;;;;;;;;;;5102383;27;20082;-62
2023/12/20 08:48:03;;;;;;;31.33;6.40;;;;;;;;;;5122619;27;20090;-62
2023/12/20 08:50:30;;;;;;;35.20;5.68;;;;;;;;;;5122899;27;20128;-62
2023/12/20 08:52:56;;;;;;;36.22;4.93;;;;;;;;;;5121636;27;20375;-62
2023/12/20 08:55:22;;;;;;;11.02;2.40;;;;;;;;;;5120376;27;20043;-62
2023/12/20 08:57:49;;;;;;;10.60;1.50;;;;;;;;;;5117986;27;20126;-62
2023/12/20 09:00:16;;;;;;;9.77;1.67;;;;;;;;;;5116989;27;20066;-62
2023/12/20 09:02:42;;;;;;;12.00;2.10;;;;;;;;;;5119065;27;20040;-62
2023/12/20 09:05:08;;;;;;;14.43;1.73;;;;;;;;;;5117339;27;20119;-62
2023/12/20 09:07:34;;;;;;;11.50;2.28;;;;;;;;;;5117557;27;20047;-62
2023/12/20 09:10:01;;;;;;;17.67;1.75;;;;;;;;;;5117907;27;20391;-62
2023/12/20 09:12:27;;;;;;;22.27;3.10;;;;;;;;;;5117981;27;20040;-61
2023/12/20 09:14:54;;;;;;;14.73;2.90;;;;;;;;;;5098731;27;20503;-62
2023/12/20 09:17:22;;;;;;;26.02;2.75;;;;;;;;;;5118271;27;20115;-62
2023/12/20 09:19:49;;;;;;;12.35;2.17;;;;;;;;;;5095567;27;20066;-62
2023/12/20 09:22:15;;;;;;;17.80;2.58;;;;;;;;;;5094685;27;20360;-62
2023/12/20 09:24:41;;;;;;;16.80;2.50;;;;;;;;;;5120797;27;20035;-61
2023/12/20 09:27:07;;;;;;;17.85;2.08;;;;;;;;;;5103430;27;20153;-62
2023/12/20 09:29:33;;;;;;;23.35;2.40;;;;;;;;;;5100099;27;20129;-62
2023/12/20 09:32:00;;;;;;;24.17;3.35;;;;;;;;;;5096760;28;20090;-62
2023/12/20 09:34:26;;;;;;;18.50;2.85;;;;;;;;;;5099530;27;20379;-62
2023/12/20 09:36:53;;;;;;;22.95;2.33;;;;;;;;;;5093860;28;20149;-62
2023/12/20 09:39:21;;;;;;;26.48;3.25;;;;;;;;;;5118761;27;20515;-61
2023/12/20 09:41:52;;;;;;;20.27;2.95;;;;;;;;;;5098942;27;20075;-62
2023/12/20 09:44:19;;;;;;;21.88;3.65;;;;;;;;;;5102508;27;20046;-62
2023/12/20 09:46:46;;;;;;;21.40;3.40;;;;;;;;;;5098594;27;20073;-62
2023/12/20 09:49:13;;;;;;;19.58;2.50;;;;;;;;;;5117496;27;20043;-62
2023/12/20 09:51:40;;;;;;;19.75;2.60;;;;;;;;;;5117007;27;20038;-62
2023/12/20 09:54:06;;;;;;;16.17;2.45;;;;;;;;;;5103618;27;20161;-62
2023/12/20 09:56:32;;;;;;;9.75;1.90;;;;;;;;;;5103432;27;20039;-62
2023/12/20 09:59:00;;;;;;;14.05;2.35;;;;;;;;;;5101723;27;20046;-62
2023/12/20 10:01:26;;;;;;;15.70;2.13;;;;;;;;;;5097479;27;20031;-62
2023/12/20 10:03:54;;;;;;;9.85;1.70;;;;;;;;;;5117692;27;20115;-62
2023/12/20 10:06:21;;;;;;;17.38;3.35;;;;;;;;;;5115300;27;20046;-62
2023/12/20 10:08:48;;;;;;;12.93;2.47;;;;;;;;;;5096543;27;20519;-62
2023/12/20 10:11:14;;;;;;;19.17;2.20;;;;;;;;;;5099974;27;20061;-63
2023/12/20 10:13:41;;;;;;;17.98;2.90;;;;;;;;;;5102821;28;20383;-62
2023/12/20 10:16:07;;;;;;;18.85;2.92;;;;;;;;;;5101919;27;20077;-62
2023/12/20 10:18:34;;;;;;;12.68;2.13;;;;;;;;;;5100060;28;20144;-62
2023/12/20 10:21:01;;;;;;;15.95;2.50;;;;;;;;;;5122080;27;20043;-62
2023/12/20 10:23:27;;;;;;;16.27;2.83;;;;;;;;;;5102696;28;20150;-62
2023/12/20 10:25:57;;;;;;;21.50;3.60;;;;;;;;;;5119735;27;20511;-62
2023/12/20 10:28:27;;;;;;;22.45;3.10;;;;;;;;;;5120246;27;20063;-62
2023/12/20 10:30:54;;;;;;;22.33;3.50;;;;;;;;;;5119216;27;20039;-62
2023/12/20 10:33:25;;;;;;;19.30;4.05;;;;;;;;;;5119723;28;20059;-62
2023/12/20 10:35:52;;;;;;;19.85;2.88;;;;;;;;;;5119781;28;20063;-62
2023/12/20 10:38:18;;;;;;;20.73;2.80;;;;;;;;;;5117096;28;20031;-62
2023/12/20 10:40:46;;;;;;;38.30;3.53;;;;;;;;;;5119910;28;20043;-62
2023/12/20 10:43:13;;;;;;;18.50;3.45;;;;;;;;;;5101092;27;20050;-62
2023/12/20 10:45:39;;;;;;;17.58;2.70;;;;;;;;;;5106218;27;20065;-62
2023/12/20 10:48:06;;;;;;;15.63;3.67;;;;;;;;;;5125268;27;20061;-62
2023/12/20 10:50:32;;;;;;;30.45;4.10;;;;;;;;;;5124470;27;20092;-62
2023/12/20 10:52:59;;;;;;;18.40;2.70;;;;;;;;;;5122228;27;20158;-62
2023/12/20 10:55:26;;;;;;;18.70;3.00;;;;;;;;;;5116337;27;20039;-62
2023/12/20 10:57:52;;;;;;;25.25;3.80;;;;;;;;;;5116454;27;20571;-62
2023/12/20 11:00:19;;;;;;;16.98;2.88;;;;;;;;;;5086491;27;20131;-63
2023/12/20 11:02:46;;;;;;;23.70;3.10;;;;;;;;;;5103516;27;20054;-63
2023/12/20 11:05:23;;;;;;;15.70;2.60;;;;;;;;;;5108191;27;20119;-63
2023/12/20 11:07:55;;;;;;;21.13;3.63;;;;;;;;;;5106509;27;20043;-63
2023/12/20 11:10:23;;;;;;;21.13;4.28;;;;;;;;;;5107154;27;21370;-63
2023/12/20 11:12:53;;;;;;;17.83;2.75;;;;;;;;;;5099925;27;20040;-63
2023/12/20 11:15:20;;;;;;;27.25;3.50;;;;;;;;;;5124484;27;20039;-63
2023/12/20 11:17:46;;;;;;;16.30;3.30;;;;;;;;;;5108143;27;20374;-63
2023/12/20 11:20:13;;;;;;;21.55;3.22;;;;;;;;;;5123724;27;20054;-63
2023/12/20 11:22:41;;;;;;;21.70;3.78;;;;;;;;;;5125882;27;20071;-63
2023/12/20 11:25:10;;;;;;;16.50;3.47;;;;;;;;;;5124031;27;20059;-63
2023/12/20 11:27:37;;;;;;;17.75;2.88;;;;;;;;;;5108600;27;20467;-63
2023/12/20 11:30:09;;;;;;;15.30;2.97;;;;;;;;;;5109558;27;20055;-63
2023/12/20 11:32:36;;;;;;;14.10;2.75;;;;;;;;;;5127812;27;20035;-63
2023/12/20 11:35:18;;;;;;;19.80;3.00;;;;;;;;;;5119131;27;20671;-63
2023/12/20 11:37:46;;;;;;;20.30;2.95;;;;;;;;;;5121822;27;20077;-63
2023/12/20 11:40:14;;;;;;;18.80;2.80;;;;;;;;;;5102546;27;20047;-63
2023/12/20 11:42:41;;;;;;;25.35;2.80;;;;;;;;;;5107024;27;20065;-63
2023/12/20 11:45:15;;;;;;;21.40;3.47;;;;;;;;;;5126588;27;20139;-63
2023/12/20 11:47:49;;;;;;;21.33;3.20;;;;;;;;;;5104675;27;20052;-63
2023/12/20 11:50:15;;;;;;;;;;;;;;;;;;5100906;27;20475;-63
2023/12/20 11:52:41;;;;;;;14.40;2.40;;;;;;;;;;5104288;27;20452;-63
2023/12/20 11:55:08;;;;;;;16.75;2.78;;;;;;;;;;5101474;27;20062;-63
2023/12/20 11:57:34;;;;;;;22.33;3.05;;;;;;;;;;5103986;27;20512;-63
2023/12/20 12:00:00;;;;;;;16.50;2.20;;;;;;;;;;5104126;27;20111;-63
2023/12/20 12:02:26;;;;;;;18.10;2.72;;;;;;;;;;5100613;27;20051;-63
2023/12/20 12:04:53;;;;;;;20.15;4.22;;;;;;;;;;5124776;27;20092;-63
2023/12/20 12:07:20;;;;;;;19.65;3.33;;;;;;;;;;5127163;27;20039;-63
2023/12/20 12:09:46;;;;;;;18.85;3.22;;;;;;;;;;5127067;27;20110;-63
2023/12/20 12:12:13;;;;;;;26.50;3.10;;;;;;;;;;5125242;27;20088;-63
2023/12/20 12:14:40;;;;;;;19.67;3.03;;;;;;;;;;5128658;27;20482;-63
2023/12/20 12:17:12;;;;;;;18.33;4.05;;;;;;;;;;5122729;27;20043;-63
2023/12/20 12:19:39;;;;;;;21.25;3.20;;;;;;;;;;5124092;27;20082;-63
2023/12/20 12:22:13;;;;;;;19.73;4.20;;;;;;;;;;5120892;27;20043;-63
2023/12/20 12:24:39;;;;;;;18.25;3.70;;;;;;;;;;5124808;27;20039;-63
2023/12/20 12:27:07;;;;;;;17.00;3.15;;;;;;;;;;5128288;27;20047;-63
2023/12/20 12:29:34;;;;;;;21.65;3.47;;;;;;;;;;5108109;27;20122;-63
2023/12/20 12:32:00;;;;;;;21.42;3.45;;;;;;;;;;5122855;27;20071;-63
2023/12/20 12:34:28;;;;;;;20.70;3.33;;;;;;;;;;5122174;27;20475;-63
2023/12/20 12:36:54;;;;;;;20.80;3.78;;;;;;;;;;5106411;28;20115;-63
2023/12/20 12:39:20;;;;;;;25.50;3.30;;;;;;;;;;5123455;27;20167;-63
2023/12/20 12:41:47;;;;;;;16.20;2.50;;;;;;;;;;5106560;27;20050;-63
2023/12/20 12:44:13;;;;;;;16.55;2.60;;;;;;;;;;5126451;27;20039;-63
2023/12/20 12:46:39;;;;;;;18.65;3.28;;;;;;;;;;5103735;28;20109;-63
2023/12/20 12:49:06;;;;;;;12.93;2.53;;;;;;;;;;5123465;27;20043;-63
2023/12/20 12:51:32;;;;;;;17.60;2.50;;;;;;;;;;5103841;27;20071;-63
2023/12/20 12:53:58;;;;;;;14.40;2.03;;;;;;;;;;5105334;27;20398;-63
2023/12/20 12:56:24;;;;;;;15.52;2.25;;;;;;;;;;5126456;27;20043;-63
2023/12/20 12:58:50;;;;;;;15.25;2.03;;;;;;;;;;5103796;27;20074;-63
2023/12/20 13:01:17;;;;;;;12.35;1.85;;;;;;;;;;5103721;27;20373;-63
2023/12/20 13:03:43;;;;;;;15.68;2.13;;;;;;;;;;5122086;27;20065;-63
2023/12/20 13:06:09;;;;;;;13.02;2.03;;;;;;;;;;5125205;27;20063;-63
2023/12/20 13:08:35;;;;;;;14.32;1.85;;;;;;;;;;5120863;27;20096;-63
2023/12/20 13:11:04;;;;;;;12.88;2.30;;;;;;;;;;5125023;27;20493;-63
2023/12/20 13:13:30;;;;;;;12.85;3.33;;;;;;;;;;5121531;27;20074;-63
2023/12/20 13:15:57;;;;;;;12.57;1.52;;;;;;;;;;5118755;27;20091;-63
2023/12/20 13:18:23;;;;;;;13.10;1.75;;;;;;;;;;5101579;27;20385;-63
2023/12/20 13:20:50;;;;;;;12.25;2.20;;;;;;;;;;5121323;27;20059;-63
2023/12/20 13:23:18;;;;;;;11.15;1.95;;;;;;;;;;5119451;27;20652;-63
2023/12/20 13:25:45;;;;;;;7.40;1.52;;;;;;;;;;5100134;27;20047;-63
2023/12/20 13:28:12;;;;;;;9.75;1.75;;;;;;;;;;5078714;27;20396;-63
2023/12/20 13:30:38;;;;;;;16.75;2.78;;;;;;;;;;5118989;27;20389;-62
2023/12/20 13:33:05;;;;;;;8.00;1.63;;;;;;;;;;5120495;27;20058;-62
2023/12/20 13:35:31;;;;;;;8.88;1.95;;;;;;;;;;5100718;27;20039;-63
2023/12/20 13:37:58;;;;;;;7.63;1.15;;;;;;;;;;5096852;27;20114;-63
2023/12/20 13:40:24;;;;;;;8.88;1.60;;;;;;;;;;5117387;27;20071;-63
2023/12/20 13:42:50;;;;;;;9.02;1.90;;;;;;;;;;5117030;27;20035;-63
2023/12/20 13:45:17;;;;;;;8.95;2.85;;;;;;;;;;5119292;27;20493;-63
2023/12/20 13:47:43;;;;;;;8.68;1.40;;;;;;;;;;5081112;27;20131;-63
2023/12/20 13:50:10;;;;;;;11.05;1.60;;;;;;;;;;5096300;27;20376;-63
2023/12/20 13:52:36;;;;;;;19.67;2.53;;;;;;;;;;5122520;27;20994;-63
2023/12/20 13:55:04;;;;;;;14.90;3.03;;;;;;;;;;5119491;27;20127;-62
2023/12/20 13:57:31;;;;;;;9.93;2.42;;;;;;;;;;5118283;27;20402;-63
2023/12/20 13:59:58;;;;;;;13.25;2.03;;;;;;;;;;5118348;27;20039;-63
2023/12/20 14:02:24;;;;;;;12.02;1.80;;;;;;;;;;5121374;27;20119;-63
2023/12/20 14:04:50;;;;;;;12.45;1.83;;;;;;;;;;5118918;27;20114;-62
2023/12/20 14:07:16;;;;;;;13.13;1.95;;;;;;;;;;5119326;27;20038;-62
2023/12/20 14:09:45;;;;;;;7.50;1.60;;;;;;;;;;5117130;27;20035;-62
2023/12/20 14:12:12;;;;;;;11.18;1.60;;;;;;;;;;5116091;27;20118;-63
2023/12/20 14:14:38;;;;;;;20.75;2.25;;;;;;;;;;5094058;27;20073;-62
2023/12/20 14:17:06;;;;;;;14.65;2.10;;;;;;;;;;5099790;27;20546;-63
2023/12/20 14:19:32;;;;;;;14.30;2.15;;;;;;;;;;5093205;28;20138;-63
2023/12/20 14:22:01;;;;;;;21.73;3.38;;;;;;;;;;5111866;27;21187;-63
2023/12/20 14:24:28;;;;;;;15.38;2.40;;;;;;;;;;5117935;27;20063;-62
2023/12/20 14:26:55;;;;;;;15.05;2.63;;;;;;;;;;5093997;28;20466;-63